Time;durP1;ratioP1;P1;durP2;ratioP2;P2;SDS_P1;SDS_P2;PMS_P1;PMS_P2;Temp;Humidity;BMP_temperature;BMP_pressure;BME280_temperature;BME280_humidity;BME280_pressure;Samples;Min_cycle;Max_cycle;Signal;HPM_P1;HPM_P2
2024/04/20 00:01:21;;;;;;;;;;;;;;;6.54;78.47;98972.64;111852;1241;22486;-80
2024/04/20 00:04:11;;;;;;;3.00;1.00;;;;;;;6.52;78.59;98977.09;111925;1239;22530;-81
2024/04/20 00:07:01;;;;;;;4.20;1.00;;;;;;;6.52;78.62;98979.06;111799;1240;22627;-82
2024/04/20 00:09:51;;;;;;;;;;;;;;;6.52;78.68;98978.91;111827;1240;22621;-81
2024/04/20 00:12:41;;;;;;;5.40;1.10;;;;;;;6.51;78.83;98978.04;111943;1240;23858;-80
2024/04/20 00:15:30;;;;;;;;;;;;;;;6.51;78.94;98980.20;111980;1233;22546;-81
2024/04/20 00:18:46;;;;;;;6.90;1.40;;;;;;;6.50;79.19;98981.90;111788;1240;24030;-80
2024/04/20 00:21:37;;;;;;;7.50;1.30;;;;;;;6.49;79.22;98980.98;111496;1240;24265;-80
2024/04/20 00:24:27;;;;;;;7.50;1.60;;;;;;;6.48;79.29;98980.91;111916;1233;22585;-80
2024/04/20 00:27:16;;;;;;;;;;;;;;;6.47;79.44;98981.36;111887;1240;22490;-81
2024/04/20 00:30:08;;;;;;;6.90;1.60;;;;;;;6.46;79.52;98981.64;111768;1240;22514;-80
2024/04/20 00:32:58;;;;;;;7.90;1.50;;;;;;;6.47;79.63;98983.82;111578;1240;22509;-82
2024/04/20 00:35:49;;;;;;;6.40;1.40;;;;;;;6.48;79.66;98983.38;111744;1225;23125;-81
2024/04/20 00:38:39;;;;;;;4.00;1.20;;;;;;;6.50;79.74;98988.48;112023;1240;22722;-80
2024/04/20 00:41:30;;;;;;;5.00;1.30;;;;;;;6.50;79.90;98990.36;112082;1240;22492;-81
2024/04/20 00:44:19;;;;;;;;;;;;;;;6.48;79.98;98991.80;112077;1240;22481;-80
2024/04/20 00:47:10;;;;;;;5.10;1.40;;;;;;;6.48;79.96;98988.81;112146;1240;22622;-82
2024/04/20 00:50:01;;;;;;;7.10;1.40;;;;;;;6.49;80.07;98993.17;111893;1240;25440;-81
2024/04/20 00:52:52;;;;;;;4.40;1.40;;;;;;;6.48;79.97;98987.46;111906;1239;22565;-81
2024/04/20 00:55:43;;;;;;;4.60;1.40;;;;;;;6.46;80.04;98989.70;112328;1240;22689;-81
2024/04/20 00:58:34;;;;;;;9.20;1.60;;;;;;;6.45;80.21;98992.30;111994;1240;23877;-81
2024/04/20 01:01:26;;;;;;;6.00;1.50;;;;;;;6.46;80.17;98995.76;112645;1240;22695;-81
2024/04/20 01:04:16;;;;;;;4.50;1.30;;;;;;;6.47;80.28;98994.41;111977;1240;23650;-80
2024/04/20 01:07:05;;;;;;;;;;;;;;;6.51;80.41;98999.20;112119;1240;22890;-81
2024/04/20 01:09:56;;;;;;;5.50;1.60;;;;;;;6.50;80.48;98999.54;112043;1240;22511;-80
2024/04/20 01:12:45;;;;;;;;;;;;;;;6.51;80.46;99000.13;112086;1235;22597;-82
2024/04/20 01:15:36;;;;;;;6.70;1.60;;;;;;;6.51;80.56;98995.84;112611;1240;23359;-81
2024/04/20 01:18:24;;;;;;;;;;;;;;;6.51;80.53;98993.81;112330;1240;25307;-81
2024/04/20 01:21:16;;;;;;;7.40;1.60;;;;;;;6.47;80.53;98993.64;111546;1240;169976;-82
2024/04/20 01:24:14;;;;;;;5.70;1.70;;;;;;;6.44;80.48;98994.20;112017;1240;25376;-80
2024/04/20 01:27:05;;;;;;;5.20;1.60;;;;;;;6.45;80.45;98993.62;112178;1240;23722;-81
2024/04/20 01:29:55;;;;;;;6.10;1.50;;;;;;;6.45;80.39;98995.64;111754;1236;24177;-81
2024/04/20 01:32:46;;;;;;;4.90;1.50;;;;;;;6.45;80.43;98999.46;112081;1240;22545;-81
2024/04/20 01:35:37;;;;;;;;;;;;;;;6.42;80.45;99000.42;112705;1238;22506;-82
2024/04/20 01:38:28;;;;;;;6.00;1.90;;;;;;;6.37;80.65;99003.01;111968;1238;23151;-80
2024/04/20 01:41:17;;;;;;;;;;;;;;;6.34;80.73;99005.79;111946;1240;22510;-81
2024/04/20 01:44:08;;;;;;;4.80;1.60;;;;;;;6.33;80.83;99008.30;111925;1240;22542;-80
2024/04/20 01:46:58;;;;;;;7.00;1.50;;;;;;;6.31;80.89;99008.27;112135;1240;22541;-81
2024/04/20 01:49:48;;;;;;;6.40;1.70;;;;;;;6.29;80.94;99012.88;112338;1240;25827;-81
2024/04/20 01:52:37;;;;;;;;;;;;;;;6.29;80.95;99014.19;111716;1240;24262;-81
2024/04/20 01:55:28;;;;;;;6.10;1.70;;;;;;;6.30;81.03;99017.88;112215;1241;22910;-81
2024/04/20 01:58:17;;;;;;;;;;;;;;;6.29;81.14;99018.17;112232;1241;24369;-80
2024/04/20 02:01:08;;;;;;;5.30;1.70;;;;;;;6.28;81.12;99022.58;112541;1240;25313;-81
2024/04/20 02:03:58;;;;;;;7.30;1.50;;;;;;;6.27;81.21;99026.80;112059;1238;22616;-81
2024/04/20 02:06:49;;;;;;;5.10;1.60;;;;;;;6.28;81.24;99029.08;112118;1240;25450;-81
2024/04/20 02:09:40;;;;;;;5.60;1.70;;;;;;;6.29;81.33;99032.38;112091;1240;25314;-80
2024/04/20 02:12:30;;;;;;;5.30;1.90;;;;;;;6.32;81.27;99033.63;112031;1237;22619;-81
2024/04/20 02:15:21;;;;;;;6.50;1.80;;;;;;;6.33;81.40;99037.27;112327;1241;22611;-82
2024/04/20 02:18:11;;;;;;;4.30;1.50;;;;;;;6.34;81.55;99035.69;112004;1240;22579;-81
2024/04/20 02:21:03;;;;;;;4.70;1.50;;;;;;;6.33;81.62;99036.73;111981;1241;22567;-81
2024/04/20 02:23:54;;;;;;;5.60;1.70;;;;;;;6.32;81.68;99039.13;111988;1241;23940;-80
2024/04/20 02:26:44;;;;;;;4.90;1.40;;;;;;;6.34;81.67;99039.75;112025;1241;22608;-81
2024/04/20 02:29:35;;;;;;;5.80;1.70;;;;;;;6.35;81.75;99045.17;112114;1240;22494;-81
2024/04/20 02:32:25;;;;;;;5.20;1.70;;;;;;;6.35;81.80;99043.86;112155;1241;22521;-82
2024/04/20 02:35:16;;;;;;;5.70;1.90;;;;;;;6.36;81.80;99047.00;111909;1241;22557;-82
2024/04/20 02:38:05;;;;;;;;;;;;;;;6.37;81.88;99047.36;111961;1241;22497;-81
2024/04/20 02:40:56;;;;;;;5.50;1.60;;;;;;;6.36;81.91;99053.04;111984;1241;23214;-80
2024/04/20 02:43:47;;;;;;;5.40;1.60;;;;;;;6.35;82.02;99052.88;111939;1241;24174;-80
2024/04/20 02:46:40;;;;;;;6.90;2.30;;;;;;;6.36;82.06;99058.17;111960;1241;23862;-81
2024/04/20 02:49:31;;;;;;;6.00;1.80;;;;;;;6.35;82.38;99057.73;111817;1240;22622;-80
2024/04/20 02:52:24;;;;;;;6.30;2.40;;;;;;;6.37;82.70;99058.30;112021;1241;22593;-80
2024/04/20 02:55:15;;;;;;;10.70;3.50;;;;;;;6.35;82.98;99058.06;112091;1241;22561;-81
2024/04/20 02:58:06;;;;;;;7.30;2.70;;;;;;;6.33;83.09;99065.14;112024;1240;22581;-84
2024/04/20 03:00:58;;;;;;;6.90;2.40;;;;;;;6.32;83.38;99064.94;111928;1241;22547;-82
2024/04/20 03:03:49;;;;;;;6.50;2.20;;;;;;;6.33;83.49;99063.94;114189;1241;22317;-82
2024/04/20 03:06:39;;;;;;;6.70;2.30;;;;;;;6.34;83.74;99066.21;112496;1238;22595;-82
2024/04/20 03:09:28;;;;;;;;;;;;;;;6.30;83.83;99069.48;112027;1233;22494;-81
2024/04/20 03:12:19;;;;;;;6.10;2.30;;;;;;;6.24;84.03;99074.52;112151;1240;22553;-80
2024/04/20 03:15:10;;;;;;;7.90;2.50;;;;;;;6.20;84.15;99073.94;112265;1240;22874;-80
2024/04/20 03:18:00;;;;;;;8.60;2.50;;;;;;;6.17;84.26;99078.82;112281;1240;22519;-80
2024/04/20 03:20:49;;;;;;;;;;;;;;;6.14;84.62;99080.64;111895;1241;22516;-81
2024/04/20 03:23:40;;;;;;;9.30;3.50;;;;;;;6.09;84.84;99082.61;112262;1240;25331;-81
2024/04/20 03:26:29;;;;;;;;;;;;;;;6.07;84.86;99083.97;112105;1240;22577;-81
2024/04/20 03:29:20;;;;;;;6.60;2.70;;;;;;;6.06;85.16;99087.83;112124;1240;22671;-81
2024/04/20 03:32:11;;;;;;;6.50;2.50;;;;;;;6.07;85.25;99094.42;112198;1240;23442;-83
2024/04/20 03:35:03;;;;;;;7.00;2.30;;;;;;;6.07;85.41;99095.58;112168;1240;22543;-84
2024/04/20 03:37:55;;;;;;;6.90;2.20;;;;;;;6.08;85.47;99098.47;112105;1240;25249;-84
2024/04/20 03:40:46;;;;;;;7.00;2.60;;;;;;;6.08;85.72;99104.31;111937;1240;25239;-85
2024/04/20 03:43:38;;;;;;;6.10;2.50;;;;;;;6.08;85.76;99104.36;112375;1240;22545;-85
2024/04/20 03:46:29;;;;;;;9.00;2.80;;;;;;;6.09;85.89;99108.90;111902;1240;25358;-84
2024/04/20 03:49:19;;;;;;;7.20;2.70;;;;;;;6.09;85.97;99111.08;111790;1240;22517;-84
2024/04/20 03:52:13;;;;;;;8.40;3.10;;;;;;;6.09;86.22;99112.13;114172;1240;22340;-85
2024/04/20 03:55:04;;;;;;;6.50;2.80;;;;;;;6.05;86.43;99115.88;113942;1239;22292;-85
2024/04/20 03:57:54;;;;;;;6.60;2.70;;;;;;;6.00;86.72;99118.46;113901;1240;22260;-85
2024/04/20 04:00:43;;;;;;;;;;;;;;;5.97;86.92;99124.95;114255;1240;23034;-85
2024/04/20 04:03:35;;;;;;;6.40;2.30;;;;;;;5.92;87.11;99125.21;114198;1240;23214;-85
2024/04/20 04:06:25;;;;;;;7.20;2.40;;;;;;;5.90;87.30;99122.14;114205;1240;22317;-85
2024/04/20 04:09:15;;;;;;;;;;;;;;;5.90;87.45;99126.52;114230;1240;22302;-85
2024/04/20 04:12:07;;;;;;;6.40;2.50;;;;;;;5.87;87.72;99134.57;114209;1236;22236;-84
2024/04/20 04:14:59;;;;;;;7.70;3.10;;;;;;;5.85;87.70;99133.66;114196;1240;22247;-85
2024/04/20 04:17:50;;;;;;;6.90;2.90;;;;;;;5.87;87.77;99134.66;114073;1241;22295;-85
2024/04/20 04:20:41;;;;;;;7.90;3.00;;;;;;;5.86;88.03;99140.70;114193;1240;23052;-85
2024/04/20 04:23:32;;;;;;;9.80;3.50;;;;;;;5.87;88.10;99140.96;114204;1240;22380;-84
2024/04/20 04:26:23;;;;;;;7.30;3.20;;;;;;;5.90;88.34;99145.57;114208;1239;22372;-85
2024/04/20 04:29:15;;;;;;;7.70;2.90;;;;;;;5.92;88.50;99149.04;114206;1241;22311;-84
2024/04/20 04:32:07;;;;;;;7.70;3.20;;;;;;;5.94;88.65;99151.63;113942;1239;22247;-85
2024/04/20 04:34:59;;;;;;;9.50;3.30;;;;;;;5.99;88.76;99155.15;114191;1237;22297;-85
2024/04/20 04:37:51;;;;;;;7.90;3.50;;;;;;;6.03;88.98;99158.87;114195;1240;22299;-84
2024/04/20 04:40:42;;;;;;;8.30;3.30;;;;;;;6.07;89.20;99162.67;113941;1241;22359;-84
2024/04/20 04:43:33;;;;;;;7.70;3.10;;;;;;;6.09;89.37;99166.34;114209;1240;23229;-85
2024/04/20 04:46:24;;;;;;;6.60;2.90;;;;;;;6.10;89.53;99173.17;113937;1240;22160;-85
2024/04/20 04:49:15;;;;;;;7.20;3.00;;;;;;;6.13;89.75;99171.14;114199;1240;22280;-85
2024/04/20 04:52:06;;;;;;;6.70;2.80;;;;;;;6.14;89.86;99177.41;114193;1240;23491;-84
2024/04/20 04:54:58;;;;;;;8.80;3.60;;;;;;;6.17;90.04;99179.38;113987;1239;23060;-84
2024/04/20 04:57:48;;;;;;;8.30;3.30;;;;;;;6.19;90.03;99183.46;114208;1240;22227;-84
2024/04/20 05:00:38;;;;;;;7.00;3.00;;;;;;;6.21;90.23;99189.36;114215;1240;22300;-85
2024/04/20 05:03:28;;;;;;;5.10;1.70;;;;;;;6.23;90.09;99191.55;114177;1240;22562;-85
2024/04/20 05:06:18;;;;;;;5.60;1.80;;;;;;;6.23;90.00;99195.67;113946;1241;22998;-85
2024/04/20 05:09:07;;;;;;;;;;;;;;;6.22;89.92;99197.16;114199;1241;22720;-86
2024/04/20 05:11:58;;;;;;;2.60;0.90;;;;;;;6.22;90.03;99199.09;114207;1233;22277;-83
2024/04/20 05:14:51;;;;;;;5.70;1.20;;;;;;;6.23;89.92;99201.17;114219;1240;22945;-83
2024/04/20 05:17:41;;;;;;;4.30;1.30;;;;;;;6.26;90.26;99203.45;114205;1241;22287;-83
2024/04/20 05:20:35;;;;;;;4.30;1.00;;;;;;;6.28;90.33;99201.63;113927;1241;22303;-85
2024/04/20 05:23:26;;;;;;;5.80;1.10;;;;;;;6.32;90.60;99210.83;113959;1240;22264;-85
2024/04/20 05:26:16;;;;;;;3.90;1.20;;;;;;;6.37;90.55;99216.05;114202;1238;22267;-84
2024/04/20 05:29:07;;;;;;;3.70;1.40;;;;;;;6.42;90.48;99216.77;113967;1240;23093;-84
2024/04/20 05:31:56;;;;;;;;;;;;;;;6.50;90.71;99216.91;114192;1240;22288;-84
2024/04/20 05:34:47;;;;;;;2.40;0.80;;;;;;;6.57;90.76;99223.14;114193;1241;22255;-84
2024/04/20 05:37:37;;;;;;;2.50;0.80;;;;;;;6.64;90.64;99224.83;114177;1240;22376;-84
2024/04/20 05:40:29;;;;;;;3.60;0.90;;;;;;;6.70;90.74;99229.37;114210;1241;22189;-84
2024/04/20 05:43:19;;;;;;;3.00;0.80;;;;;;;6.73;90.27;99232.45;114212;1240;22308;-84
2024/04/20 05:46:08;;;;;;;;;;;;;;;6.72;90.15;99235.73;114219;1240;22354;-84
2024/04/20 05:48:59;;;;;;;3.00;0.60;;;;;;;6.73;90.30;99236.24;114199;1238;22243;-84
2024/04/20 05:51:48;;;;;;;;;;;;;;;6.72;90.32;99240.80;114191;1240;22311;-84
2024/04/20 05:54:39;;;;;;;1.90;0.50;;;;;;;6.72;90.25;99242.54;114182;1240;22309;-85
2024/04/20 05:57:31;;;;;;;1.90;0.50;;;;;;;6.72;90.42;99243.58;114183;1240;22241;-84
2024/04/20 06:00:22;;;;;;;1.50;0.40;;;;;;;6.72;90.78;99250.09;114195;1240;22296;-82
2024/04/20 06:03:12;;;;;;;1.70;0.60;;;;;;;6.69;90.35;99251.50;114191;1241;22245;-83
2024/04/20 06:06:02;;;;;;;1.80;0.40;;;;;;;6.67;90.61;99257.31;114202;1241;22159;-83
2024/04/20 06:08:55;;;;;;;1.90;0.50;;;;;;;6.62;90.47;99260.10;114208;1238;22188;-84
2024/04/20 06:11:47;;;;;;;1.30;0.40;;;;;;;6.59;90.49;99266.87;114210;1239;22260;-83
2024/04/20 06:14:37;;;;;;;3.90;1.00;;;;;;;6.56;90.57;99269.14;114166;1241;23463;-83
2024/04/20 06:17:27;;;;;;;2.60;0.50;;;;;;;6.58;90.93;99273.32;114175;1241;23057;-83
2024/04/20 06:20:17;;;;;;;;;;;;;;;6.57;90.68;99276.38;114205;1241;22280;-83
2024/04/20 06:23:07;;;;;;;2.20;0.50;;;;;;;6.56;90.83;99279.77;114211;1240;22876;-83
2024/04/20 06:25:58;;;;;;;3.30;0.60;;;;;;;6.57;91.22;99280.00;114196;1241;22401;-83
2024/04/20 06:28:49;;;;;;;3.70;0.60;;;;;;;6.61;91.27;99285.53;114179;1240;22344;-84
2024/04/20 06:31:39;;;;;;;3.30;0.60;;;;;;;6.63;91.23;99290.26;114197;1241;22240;-83
2024/04/20 06:34:31;;;;;;;3.60;0.50;;;;;;;6.67;91.32;99288.69;114212;1241;23155;-84
2024/04/20 06:37:21;;;;;;;3.90;0.50;;;;;;;6.72;91.27;99290.27;114185;1240;22278;-84
2024/04/20 06:40:12;;;;;;;0.80;0.40;;;;;;;6.76;91.45;99295.27;114199;1240;22154;-84
2024/04/20 06:43:03;;;;;;;2.10;0.70;;;;;;;6.82;91.34;99296.33;114202;1241;22217;-83
2024/04/20 06:45:53;;;;;;;2.00;0.60;;;;;;;6.86;91.17;99301.89;114198;1240;22223;-84
2024/04/20 06:48:44;;;;;;;2.00;0.60;;;;;;;6.90;91.38;99307.71;114206;1241;23121;-84
2024/04/20 06:51:35;;;;;;;1.70;0.60;;;;;;;6.93;90.64;99309.95;114205;1240;23032;-84
2024/04/20 06:54:26;;;;;;;2.00;0.70;;;;;;;6.92;90.35;99313.15;114197;1241;23174;-84
2024/04/20 06:57:16;;;;;;;2.50;0.60;;;;;;;6.91;90.50;99316.52;113979;1240;22987;-84
2024/04/20 07:00:06;;;;;;;;;;;;;;;6.87;90.56;99315.84;114193;1240;22316;-84
2024/04/20 07:02:56;;;;;;;1.60;0.50;;;;;;;6.88;91.03;99317.25;114195;1240;22299;-85
2024/04/20 07:05:54;;;;;;;3.30;0.70;;;;;;;6.88;90.86;99322.25;114185;1241;22947;-85
2024/04/20 07:08:47;;;;;;;1.50;0.60;;;;;;;6.87;90.94;99326.33;114179;1240;22241;-84
2024/04/20 07:11:37;;;;;;;1.10;0.40;;;;;;;6.85;90.55;99328.73;114077;1241;23112;-84
2024/04/20 07:14:27;;;;;;;1.40;0.50;;;;;;;6.85;90.79;99333.25;113989;1240;22245;-84
2024/04/20 07:17:18;;;;;;;1.20;0.50;;;;;;;6.85;90.56;99341.16;114197;1240;23011;-84
2024/04/20 07:20:10;;;;;;;1.50;0.50;;;;;;;6.85;90.48;99339.66;114167;1240;23145;-84
2024/04/20 07:23:01;;;;;;;4.40;0.60;;;;;;;6.87;90.44;99344.39;114181;1240;22147;-84
2024/04/20 07:26:02;;;;;;;1.70;0.60;;;;;;;6.88;90.43;99351.86;114129;1241;22963;-83
2024/04/20 07:28:50;;;;;;;;;;;;;;;6.88;90.16;99355.83;114194;1241;22277;-83
2024/04/20 07:31:41;;;;;;;3.90;0.60;;;;;;;6.89;90.44;99357.54;114166;1240;22257;-85
2024/04/20 07:34:32;;;;;;;1.50;0.40;;;;;;;6.91;90.38;99360.10;114160;1240;22293;-84
2024/04/20 07:37:23;;;;;;;4.70;0.70;;;;;;;6.91;90.24;99365.09;114070;1241;22311;-82
2024/04/20 07:40:15;;;;;;;2.50;0.80;;;;;;;6.94;90.40;99370.29;114177;1241;22968;-83
2024/04/20 07:43:06;;;;;;;2.60;0.80;;;;;;;6.88;90.63;99377.16;113179;1241;22543;-83
2024/04/20 07:45:56;;;;;;;6.30;1.10;;;;;;;6.77;91.09;99381.52;111884;1241;22597;-84
2024/04/20 07:48:47;;;;;;;;;;;;;;;6.75;91.44;99388.16;111963;1240;24422;-84
2024/04/20 07:51:36;;;;;;;;;;;;;;;6.74;91.69;99390.33;111949;1241;25227;-84
2024/04/20 07:54:27;;;;;;;4.50;1.10;;;;;;;6.73;91.78;99392.06;111879;1241;24404;-84
2024/04/20 07:57:18;;;;;;;2.40;0.80;;;;;;;6.75;91.79;99395.95;111613;1240;22584;-83
2024/04/20 08:00:10;;;;;;;3.30;0.80;;;;;;;6.78;91.95;99398.18;111914;1241;22577;-83
2024/04/20 08:03:01;;;;;;;4.80;1.20;;;;;;;6.87;92.55;99399.53;112002;1240;24385;-82
2024/04/20 08:05:52;;;;;;;3.60;1.20;;;;;;;7.00;92.46;99397.61;111915;1241;22522;-85
2024/04/20 08:08:43;;;;;;;4.50;1.20;;;;;;;7.11;92.18;99398.08;111872;1240;22557;-84
2024/04/20 08:11:33;;;;;;;3.70;1.10;;;;;;;7.25;92.47;99397.80;111996;1240;23459;-84
2024/04/20 08:14:26;;;;;;;4.60;0.90;;;;;;;7.42;92.55;99400.47;114143;1241;22355;-86
2024/04/20 08:17:18;;;;;;;2.50;0.80;;;;;;;7.54;91.72;99406.28;114016;1241;23094;-88
2024/04/20 08:20:11;;;;;;;2.10;0.60;;;;;;;7.65;91.87;99411.06;113994;1241;23145;-86
2024/04/20 08:23:02;;;;;;;1.50;0.40;;;;;;;7.73;90.19;99416.77;113995;1241;22245;-85
2024/04/20 08:25:52;;;;;;;1.50;0.50;;;;;;;7.73;89.74;99421.27;114172;1241;22271;-87
2024/04/20 08:28:45;;;;;;;1.60;0.40;;;;;;;7.76;89.58;99422.13;113519;1240;23000;-86
2024/04/20 08:31:36;;;;;;;1.80;0.50;;;;;;;7.79;90.00;99429.75;111749;1240;26631;-83
2024/04/20 08:34:25;;;;;;;;;;;;;;;7.78;90.45;99434.79;112033;1240;26010;-85
2024/04/20 08:37:19;;;;;;;1.30;0.40;;;;;;;7.71;90.61;99440.52;111990;1240;25246;-84
2024/04/20 08:40:14;;;;;;;2.10;0.40;;;;;;;7.65;90.92;99442.25;111651;1240;23037;-84
2024/04/20 08:43:08;;;;;;;1.30;0.40;;;;;;;7.60;91.03;99445.84;112066;1240;25430;-84
2024/04/20 08:46:02;;;;;;;2.30;0.30;;;;;;;7.55;90.47;99452.66;114155;1240;22309;-86
2024/04/20 08:48:59;;;;;;;1.40;0.40;;;;;;;7.54;91.07;99458.47;114023;1241;22292;-86
2024/04/20 08:51:51;;;;;;;1.70;0.40;;;;;;;7.54;90.64;99462.91;114177;1240;22158;-87
2024/04/20 08:54:44;;;;;;;1.30;0.40;;;;;;;7.56;91.26;99461.41;114194;1241;23095;-87
2024/04/20 08:57:38;;;;;;;1.20;0.40;;;;;;;7.65;91.01;99469.10;114096;1241;23241;-85
2024/04/20 09:00:35;;;;;;;1.00;0.30;;;;;;;7.70;91.39;99466.52;113996;1240;22347;-87
2024/04/20 09:03:27;;;;;;;1.00;0.20;;;;;;;7.80;91.71;99472.35;113836;1241;22299;-86
2024/04/20 09:06:20;;;;;;;2.50;0.20;;;;;;;7.76;90.84;99478.73;114176;1240;22275;-87
2024/04/20 09:09:12;;;;;;;2.60;0.20;;;;;;;7.69;90.30;99484.09;113703;1240;22507;-86
2024/04/20 09:12:04;;;;;;;0.90;0.20;;;;;;;7.65;89.85;99485.13;111871;1240;24344;-84
2024/04/20 09:14:57;;;;;;;0.60;0.20;;;;;;;7.67;90.53;99488.98;111828;1240;23357;-85
2024/04/20 09:17:50;;;;;;;0.40;0.10;;;;;;;7.72;90.40;99490.39;111932;1240;22491;-86
2024/04/20 09:20:41;;;;;;;0.70;0.20;;;;;;;7.77;90.73;99495.19;112019;1241;22574;-85
2024/04/20 09:23:33;;;;;;;2.20;0.10;;;;;;;7.82;89.83;99497.36;112216;1241;22565;-85
2024/04/20 09:26:24;;;;;;;0.50;0.10;;;;;;;7.88;90.20;99499.84;112106;1241;22541;-84
2024/04/20 09:29:15;;;;;;;0.60;0.20;;;;;;;7.95;90.45;99503.71;114136;1241;22272;-85
2024/04/20 09:32:07;;;;;;;;;;;;;;;8.02;90.53;99506.85;114191;1241;22315;-85
2024/04/20 09:34:58;;;;;;;0.40;0.10;;;;;;;8.04;90.33;99511.52;114139;1241;22270;-85
2024/04/20 09:37:50;;;;;;;0.30;0.10;;;;;;;8.03;90.62;99519.55;114096;1241;22161;-86
2024/04/20 09:40:47;;;;;;;2.70;0.20;;;;;;;8.02;90.33;99525.85;114027;1241;22328;-85
2024/04/20 09:43:42;;;;;;;1.20;0.20;;;;;;;7.94;90.43;99529.55;114159;1241;22297;-86
2024/04/20 09:46:58;;;;;;;1.10;0.20;;;;;;;7.86;90.53;99528.91;114182;1241;23049;-89
2024/04/20 09:49:57;;;;;;;0.70;0.20;;;;;;;7.79;90.85;99534.29;113266;1241;23241;-89
2024/04/20 09:53:07;;;;;;;1.70;0.30;;;;;;;7.74;91.14;99542.12;113339;1241;22525;-91
2024/04/20 09:56:02;;;;;;;1.20;0.50;;;;;;;7.68;91.93;99543.87;113482;1241;23769;-91
2024/04/20 09:59:03;;;;;;;1.80;0.60;;;;;;;7.72;92.24;99547.21;113554;1241;22536;-91
2024/04/20 10:02:00;;;;;;;1.80;0.30;;;;;;;7.79;92.27;99549.69;113614;1241;22642;-90
2024/04/20 10:05:07;;;;;;;2.90;0.40;;;;;;;7.79;92.11;99557.42;113675;1241;24123;-89
2024/04/20 10:08:07;;;;;;;1.20;0.50;;;;;;;7.71;91.45;99558.06;112798;1241;25197;-90
2024/04/20 10:11:06;;;;;;;1.40;0.50;;;;;;;7.62;91.78;99561.69;112085;1241;22471;-89
2024/04/20 10:14:02;;;;;;;1.50;0.40;;;;;;;7.55;91.93;99563.41;112441;1241;25296;-90
2024/04/20 10:16:59;;;;;;;1.20;0.40;;;;;;;7.42;92.66;99568.08;112758;1241;22537;-90
2024/04/20 10:20:01;;;;;;;2.00;0.40;;;;;;;7.38;93.33;99567.48;113350;1241;22523;-91
2024/04/20 10:23:15;;;;;;;1.50;0.50;;;;;;;7.38;93.75;99571.54;113409;1241;22976;-91
2024/04/20 10:26:31;;;;;;;1.60;0.40;;;;;;;7.34;94.08;99576.77;113547;1241;25479;-90
2024/04/20 10:29:31;;;;;;;2.50;0.60;;;;;;;7.33;94.51;99580.70;113658;1240;23241;-90
2024/04/20 10:32:42;;;;;;;1.90;0.60;;;;;;;7.26;94.25;99584.78;112977;1240;22525;-90
2024/04/20 10:36:02;;;;;;;2.10;0.50;;;;;;;7.19;94.30;99585.92;112572;1241;22538;-89
2024/04/20 10:39:04;;;;;;;1.40;0.40;;;;;;;7.18;94.21;99592.02;112641;1235;24668;-88
2024/04/20 10:42:10;;;;;;;1.00;0.40;;;;;;;7.24;94.58;99595.93;112556;1241;22532;-88
2024/04/20 10:45:10;;;;;;;1.80;0.60;;;;;;;7.30;94.46;99601.77;112868;1241;22539;-91
2024/04/20 10:48:14;;;;;;;2.40;0.70;;;;;;;7.28;94.15;99606.83;113195;1241;22641;-90
2024/04/20 10:51:16;;;;;;;2.10;0.50;;;;;;;7.25;94.46;99606.20;113184;1241;22526;-91
2024/04/20 10:54:07;;;;;;;;;;;;;;;7.22;94.37;99610.99;112667;1240;23919;-88
2024/04/20 10:57:00;;;;;;;3.00;0.70;;;;;;;7.21;94.42;99613.73;112684;1240;22647;-90
2024/04/20 11:00:23;;;;;;;2.70;0.80;;;;;;;7.26;94.59;99613.75;112888;1240;23157;-90
2024/04/20 11:03:27;;;;;;;2.90;0.80;;;;;;;7.31;94.71;99621.09;112625;1240;23726;-90
2024/04/20 11:06:27;;;;;;;3.30;0.70;;;;;;;7.31;94.15;99620.56;113101;1240;24171;-91
2024/04/20 11:09:37;;;;;;;2.10;0.70;;;;;;;7.30;94.26;99632.41;112827;1240;25237;-89
2024/04/20 11:12:30;;;;;;;3.90;0.70;;;;;;;7.36;94.81;99637.70;112725;1241;22534;-90
2024/04/20 11:15:26;;;;;;;3.40;0.70;;;;;;;7.44;94.65;99641.66;112374;1241;22518;-89
2024/04/20 11:18:21;;;;;;;3.10;0.90;;;;;;;7.52;94.81;99644.14;112905;1240;24195;-91
2024/04/20 11:21:16;;;;;;;2.60;0.70;;;;;;;7.57;94.51;99646.98;112806;1241;22719;-90
2024/04/20 11:24:10;;;;;;;3.10;1.00;;;;;;;7.60;94.16;99651.17;113100;1240;22455;-90
2024/04/20 11:27:15;;;;;;;3.80;1.20;;;;;;;7.61;94.36;99657.38;112621;1240;25268;-90
2024/04/20 11:30:11;;;;;;;4.00;1.10;;;;;;;7.57;94.14;99670.08;112456;1241;22529;-85
2024/04/20 11:33:04;;;;;;;4.00;1.20;;;;;;;7.42;93.96;99678.73;112887;1241;22683;-85
2024/04/20 11:36:04;;;;;;;5.60;1.50;;;;;;;7.28;94.69;99680.77;112730;1240;25222;-89
2024/04/20 11:39:11;;;;;;;3.60;1.00;;;;;;;7.23;95.00;99683.88;112841;1241;22538;-89
2024/04/20 11:42:31;;;;;;;2.80;0.90;;;;;;;7.15;94.75;99694.20;113446;1235;22538;-91
